Time;durP1;ratioP1;P1;durP2;ratioP2;P2;SDS_P1;SDS_P2;PMS_P1;PMS_P2;Temp;Humidity;BMP_temperature;BMP_pressure;BME280_temperature;BME280_humidity;BME280_pressure;Samples;Min_cycle;Max_cycle;Signal;HPM_P1;HPM_P2
2023/07/01 00:02:00;;;;;;;3.90;2.93;;;23.70;48.30;24.40;100131.00;;;;5019573;28;20195;-50
2023/07/01 00:04:27;;;;;;;4.60;2.90;;;23.70;48.30;24.30;100128.00;;;;5012929;28;20224;-51
2023/07/01 00:06:54;;;;;;;3.90;2.97;;;23.70;48.50;24.30;100136.00;;;;5012176;28;20227;-50
2023/07/01 00:09:21;;;;;;;3.30;2.90;;;23.70;48.40;24.20;100118.00;;;;5011778;28;20315;-51
2023/07/01 00:11:47;;;;;;;3.50;3.20;;;23.60;48.50;24.30;100124.00;;;;5011969;28;20754;-50
2023/07/01 00:14:12;;;;;;;3.73;2.97;;;23.60;48.40;24.20;100114.00;;;;5011590;28;20250;-51
2023/07/01 00:16:39;;;;;;;4.00;2.90;;;23.60;48.50;24.20;100121.00;;;;5011776;28;20279;-50
2023/07/01 00:19:07;;;;;;;3.53;2.90;;;23.60;48.50;24.20;100110.00;;;;5011651;28;20168;-50
2023/07/01 00:21:33;;;;;;;3.40;2.83;;;23.60;48.70;24.20;100124.00;;;;5011706;28;20522;-50
2023/07/01 00:23:58;;;;;;;4.93;3.00;;;23.50;48.70;24.10;100107.00;;;;5011357;28;20579;-50
2023/07/01 00:26:25;;;;;;;4.10;3.13;;;23.50;48.70;24.10;100102.00;;;;5010279;28;20222;-50
2023/07/01 00:28:55;;;;;;;3.60;3.20;;;23.40;48.80;24.10;100102.00;;;;5011362;28;20190;-51
2023/07/01 00:31:20;;;;;;;4.10;3.43;;;23.40;48.80;24.10;100101.00;;;;5011496;28;20238;-50
2023/07/01 00:33:46;;;;;;;3.20;2.90;;;23.50;48.90;24.00;100099.00;;;;5011122;28;20618;-51
2023/07/01 00:36:12;;;;;;;3.40;3.10;;;23.40;48.70;24.00;100098.00;;;;5010939;28;20219;-50
2023/07/01 00:38:38;;;;;;;3.47;3.17;;;23.40;49.00;24.00;100094.00;;;;5009832;28;20264;-50
2023/07/01 00:41:03;;;;;;;3.30;3.00;;;23.40;48.90;24.00;100095.00;;;;5011439;28;20164;-50
2023/07/01 00:43:29;;;;;;;4.03;3.20;;;23.40;49.10;24.00;100094.00;;;;5011034;28;20207;-50
2023/07/01 00:45:55;;;;;;;3.30;3.00;;;23.40;49.10;23.90;100090.00;;;;5010565;28;20187;-50
2023/07/01 00:48:25;;;;;;;3.40;3.10;;;23.30;49.10;23.90;100078.00;;;;5009933;28;20183;-50
2023/07/01 00:50:52;;;;;;;3.47;3.17;;;23.30;49.10;23.90;100077.00;;;;5009942;28;20170;-52
2023/07/01 00:53:17;;;;;;;3.20;2.90;;;23.30;49.20;23.90;100076.00;;;;5011196;28;20206;-50
2023/07/01 00:55:43;;;;;;;3.17;2.80;;;23.20;49.20;23.80;100076.00;;;;5009726;28;20682;-50
2023/07/01 00:58:09;;;;;;;3.87;3.00;;;23.30;49.20;23.80;100076.00;;;;5005682;28;20185;-51
2023/07/01 01:00:35;;;;;;;3.33;2.87;;;23.20;49.20;23.80;100070.00;;;;5009732;28;20214;-51
2023/07/01 01:03:30;;;;;;;4.53;3.10;;;23.30;49.30;23.80;100056.00;;;;5010769;28;20168;-50
2023/07/01 01:06:33;;;;;;;3.23;2.90;;;23.30;49.20;23.80;100052.00;;;;5009704;28;20199;-50
2023/07/01 01:09:10;;;;;;;3.43;2.90;;;23.20;49.30;23.80;100048.00;;;;4977944;28;20610;-50
2023/07/01 01:11:39;;;;;;;3.40;2.80;;;23.20;49.40;23.70;100055.00;;;;5008627;28;20322;-51
2023/07/01 01:14:05;;;;;;;3.23;2.93;;;23.10;49.30;23.70;100045.00;;;;5008637;28;20197;-50
2023/07/01 01:16:31;;;;;;;3.07;2.77;;;23.20;49.40;23.70;100034.00;;;;5009036;28;20199;-50
2023/07/01 01:18:57;;;;;;;4.30;3.00;;;23.10;49.40;23.70;100047.00;;;;5009063;28;20238;-50
2023/07/01 01:21:22;;;;;;;3.30;2.70;;;23.10;49.60;23.70;100025.00;;;;5008930;28;20198;-51
2023/07/01 01:23:58;;;;;;;6.47;2.80;;;23.10;49.60;23.60;100038.00;;;;5008867;28;20274;-51
2023/07/01 01:26:26;;;;;;;3.33;2.80;;;23.10;49.50;23.60;100026.00;;;;5009239;28;20191;-51
2023/07/01 01:28:52;;;;;;;3.40;2.70;;;23.00;49.40;23.60;100030.00;;;;5008848;28;20198;-50
2023/07/01 01:31:19;;;;;;;3.80;2.80;;;23.00;49.40;23.60;100019.00;;;;5008708;28;20313;-50
2023/07/01 01:33:45;;;;;;;3.30;2.70;;;23.00;49.60;23.60;100011.00;;;;5010175;28;20207;-50
2023/07/01 01:36:50;;;;;;;4.13;2.70;;;23.00;49.60;23.60;100015.00;;;;5008699;28;20183;-50
2023/07/01 01:39:18;;;;;;;3.80;2.80;;;23.00;49.60;23.50;100014.00;;;;5008113;28;20225;-50
2023/07/01 01:41:50;;;;;;;2.80;2.60;;;23.00;49.60;23.50;100013.00;;;;5008738;28;20183;-50
2023/07/01 01:44:25;;;;;;;3.37;2.80;;;23.00;49.60;23.50;100009.00;;;;5009014;28;20238;-51
2023/07/01 01:46:50;;;;;;;2.80;2.50;;;23.00;49.50;23.50;100018.00;;;;5025270;28;20203;-51
2023/07/01 01:49:16;;;;;;;3.33;2.67;;;23.00;49.70;23.50;100008.00;;;;5020615;28;20658;-50
2023/07/01 01:51:42;;;;;;;2.80;2.50;;;23.00;49.60;23.40;100006.00;;;;4993352;28;20695;-50
2023/07/01 01:54:09;;;;;;;3.33;2.70;;;22.90;49.60;23.50;100017.00;;;;5009144;28;20198;-51
2023/07/01 01:56:35;;;;;;;2.90;2.60;;;22.90;49.70;23.40;100020.00;;;;5007817;28;20191;-50
2023/07/01 01:59:01;;;;;;;2.90;2.70;;;22.90;49.60;23.40;100011.00;;;;4993422;28;20176;-51
2023/07/01 02:01:26;;;;;;;4.73;2.73;;;22.80;49.70;23.40;100021.00;;;;5001349;28;20194;-50
2023/07/01 02:03:52;;;;;;;3.00;2.60;;;22.80;49.80;23.40;100021.00;;;;5004493;28;20183;-51
2023/07/01 02:06:18;;;;;;;2.90;2.70;;;22.80;49.80;23.10;100014.00;;;;5011073;28;20191;-51
2023/07/01 02:08:43;;;;;;;2.70;2.50;;;22.80;49.90;23.30;100005.00;;;;5006997;28;20176;-50
2023/07/01 02:11:09;;;;;;;2.80;2.60;;;22.80;49.80;23.30;99999.00;;;;5000705;28;20180;-50
2023/07/01 02:13:35;;;;;;;3.37;2.67;;;22.80;49.80;23.30;99991.00;;;;5000041;28;20550;-51
2023/07/01 02:16:01;;;;;;;2.90;2.60;;;22.80;49.80;23.30;99987.00;;;;5006810;28;20198;-50
2023/07/01 02:18:26;;;;;;;2.90;2.60;;;22.80;49.80;23.30;99981.00;;;;5003007;28;20176;-50
2023/07/01 02:20:52;;;;;;;2.90;2.60;;;22.70;49.80;23.30;99987.00;;;;5006313;28;20199;-50
2023/07/01 02:23:18;;;;;;;4.77;2.90;;;22.70;49.90;23.20;99984.00;;;;5002324;28;20337;-50
2023/07/01 02:25:44;;;;;;;2.80;2.50;;;22.70;50.00;23.20;99975.00;;;;5009173;28;20514;-49
2023/07/01 02:28:09;;;;;;;3.50;2.80;;;22.60;50.10;23.20;99978.00;;;;5009081;28;20188;-51
2023/07/01 02:30:35;;;;;;;3.60;2.80;;;22.70;50.20;23.20;99970.00;;;;5007819;28;20180;-51
2023/07/01 02:33:02;;;;;;;3.40;2.80;;;22.70;50.10;23.20;99975.00;;;;4999307;28;20204;-50
2023/07/01 02:35:29;;;;;;;3.77;2.60;;;22.60;50.00;23.20;99973.00;;;;5004932;28;20189;-51
2023/07/01 02:37:54;;;;;;;2.70;2.50;;;22.60;50.00;23.20;99958.00;;;;5000780;28;20178;-51
2023/07/01 02:40:20;;;;;;;2.80;2.50;;;22.60;50.10;23.10;99959.00;;;;5009340;28;20168;-50
2023/07/01 02:42:46;;;;;;;3.13;2.80;;;22.60;50.10;23.10;99961.00;;;;5014034;28;20171;-52
2023/07/01 02:45:12;;;;;;;3.13;2.80;;;22.60;50.10;23.10;99952.00;;;;5013843;28;20207;-50
2023/07/01 02:47:37;;;;;;;3.23;2.80;;;22.50;50.20;23.10;99955.00;;;;5009462;28;20219;-50
2023/07/01 02:50:04;;;;;;;4.13;2.53;;;22.50;50.10;23.10;99963.00;;;;5008944;28;20622;-50
2023/07/01 02:52:30;;;;;;;3.20;2.90;;;22.50;50.10;23.10;99962.00;;;;5009134;28;20222;-50
2023/07/01 02:54:55;;;;;;;4.37;2.80;;;22.50;50.20;23.00;99956.00;;;;5008653;28;20172;-52
2023/07/01 02:57:22;;;;;;;3.23;2.73;;;22.50;50.30;23.00;99962.00;;;;5008762;28;20258;-49
2023/07/01 02:59:48;;;;;;;3.53;3.10;;;22.50;50.30;23.00;99952.00;;;;5008923;28;20203;-50
2023/07/01 03:02:14;;;;;;;2.80;2.60;;;22.40;50.30;23.00;99953.00;;;;5008688;28;20183;-51
2023/07/01 03:04:40;;;;;;;3.00;2.80;;;22.40;50.30;23.00;99953.00;;;;5009955;28;20177;-50
2023/07/01 03:07:06;;;;;;;3.40;2.80;;;22.40;50.40;23.00;99959.00;;;;5010139;28;20207;-51
2023/07/01 03:09:31;;;;;;;3.43;2.77;;;22.40;50.30;22.90;99956.00;;;;5010035;28;20259;-50
2023/07/01 03:11:57;;;;;;;2.80;2.60;;;22.40;50.40;22.90;99957.00;;;;5009926;28;20202;-50
2023/07/01 03:14:23;;;;;;;2.93;2.73;;;22.40;50.50;22.90;99950.00;;;;5009392;28;20164;-51
2023/07/01 03:16:52;;;;;;;2.87;2.57;;;22.40;50.60;22.90;99951.00;;;;5009854;28;20250;-51
2023/07/01 03:19:17;;;;;;;3.30;2.90;;;22.40;50.60;22.90;99955.00;;;;5009799;28;20186;-49
2023/07/01 03:21:44;;;;;;;3.47;2.80;;;22.30;50.50;22.90;99951.00;;;;5009867;28;20551;-50
2023/07/01 03:24:09;;;;;;;3.67;2.80;;;22.40;50.70;22.90;99946.00;;;;5010241;28;20259;-50
2023/07/01 03:26:35;;;;;;;2.90;2.57;;;22.40;50.60;22.90;99940.00;;;;5002718;28;20344;-51
2023/07/01 03:29:02;;;;;;;2.97;2.73;;;22.40;50.70;22.90;99941.00;;;;5007973;28;20254;-50
2023/07/01 03:31:28;;;;;;;3.10;2.80;;;22.40;50.80;22.90;99942.00;;;;5009276;28;20206;-50
2023/07/01 03:33:53;;;;;;;3.10;2.80;;;22.40;50.90;22.90;99938.00;;;;5009647;28;20501;-50
2023/07/01 03:36:19;;;;;;;3.87;2.60;;;22.30;50.80;22.90;99944.00;;;;5009647;28;20566;-50
2023/07/01 03:38:45;;;;;;;2.70;2.50;;;22.30;50.90;22.80;99943.00;;;;4991882;28;20176;-50
2023/07/01 03:41:11;;;;;;;3.10;2.77;;;22.30;50.90;22.80;99947.00;;;;5009916;28;20175;-51
2023/07/01 03:43:37;;;;;;;3.03;2.70;;;22.30;50.90;22.80;99935.00;;;;5008302;28;20168;-50
2023/07/01 03:46:02;;;;;;;3.00;2.70;;;22.30;50.90;22.80;99941.00;;;;5008433;28;20199;-50
2023/07/01 03:48:28;;;;;;;3.50;2.60;;;22.30;51.00;22.80;99932.00;;;;5024792;28;20191;-51
2023/07/01 03:50:54;;;;;;;2.80;2.50;;;22.30;51.00;22.80;99929.00;;;;5026034;28;20183;-51
2023/07/01 03:53:20;;;;;;;3.07;2.60;;;22.30;51.00;22.80;99924.00;;;;5010152;28;20226;-51
2023/07/01 03:55:47;;;;;;;2.93;2.67;;;22.30;51.10;22.80;99926.00;;;;5005506;28;20208;-50
2023/07/01 03:58:21;;;;;;;3.60;2.60;;;22.20;51.00;22.80;99929.00;;;;4982382;28;20180;-50
2023/07/01 04:00:48;;;;;;;2.70;2.50;;;22.20;51.00;22.70;99934.00;;;;5007717;28;20176;-50
2023/07/01 04:03:14;;;;;;;2.87;2.53;;;22.20;51.20;22.70;99923.00;;;;5024194;28;20184;-50
2023/07/01 04:05:39;;;;;;;3.70;2.43;;;22.20;51.20;22.70;99914.00;;;;5016637;28;20203;-50
2023/07/01 04:08:05;;;;;;;2.77;2.57;;;22.20;51.20;22.70;99914.00;;;;5009568;28;20242;-51
2023/07/01 04:10:31;;;;;;;2.70;2.50;;;22.20;51.40;22.70;99902.00;;;;5008765;28;20231;-51
2023/07/01 04:12:58;;;;;;;3.97;2.70;;;22.20;51.30;22.70;99898.00;;;;5007686;28;20218;-50
2023/07/01 04:15:24;;;;;;;3.30;2.47;;;22.20;51.40;22.70;99902.00;;;;5007718;28;20218;-50
2023/07/01 04:17:50;;;;;;;2.83;2.40;;;22.20;51.60;22.70;99903.00;;;;5008471;28;20175;-50
2023/07/01 04:20:17;;;;;;;3.10;2.80;;;22.20;51.50;22.70;99907.00;;;;4996409;28;20181;-50
2023/07/01 04:22:42;;;;;;;2.97;2.60;;;22.20;51.40;22.70;99905.00;;;;5010310;28;20218;-49
2023/07/01 04:25:08;;;;;;;3.33;2.63;;;22.20;51.30;22.70;99908.00;;;;5011440;28;20195;-50
2023/07/01 04:27:34;;;;;;;2.70;2.50;;;22.20;51.40;22.70;99911.00;;;;5011408;28;20662;-50
2023/07/01 04:30:00;;;;;;;3.07;2.60;;;22.20;51.40;22.70;99835.00;;;;5012101;28;20183;-51
2023/07/01 04:32:28;;;;;;;2.90;2.60;;;22.20;51.30;22.70;99897.00;;;;5011611;28;20290;-50
2023/07/01 04:34:54;;;;;;;2.60;2.40;;;22.20;51.30;22.70;99896.00;;;;5015249;28;20186;-51
2023/07/01 04:37:20;;;;;;;4.13;2.57;;;22.30;51.40;22.70;99889.00;;;;5011008;28;20256;-51
2023/07/01 04:39:45;;;;;;;2.87;2.67;;;22.20;51.30;22.70;99898.00;;;;4991498;28;20695;-51
2023/07/01 04:42:11;;;;;;;3.40;2.60;;;22.20;51.30;22.70;99891.00;;;;4992259;28;20215;-49
2023/07/01 04:44:37;;;;;;;2.63;2.43;;;22.20;51.30;22.70;99889.00;;;;4991494;28;20203;-50
2023/07/01 04:47:03;;;;;;;3.37;2.60;;;22.20;51.40;22.70;99875.00;;;;4991963;28;20200;-49
2023/07/01 04:49:28;;;;;;;3.03;2.63;;;22.20;51.40;22.70;99884.00;;;;4991063;28;20180;-49
2023/07/01 04:51:55;;;;;;;3.00;2.60;;;22.20;51.40;22.70;99884.00;;;;4991623;28;20652;-50
2023/07/01 04:54:21;;;;;;;4.20;2.80;;;22.20;51.40;22.70;99892.00;;;;5006119;28;20180;-50
2023/07/01 04:56:47;;;;;;;2.97;2.50;;;22.30;51.50;22.70;99870.00;;;;4993944;28;20202;-50
2023/07/01 04:59:12;;;;;;;3.90;2.70;;;22.20;51.30;22.70;99860.00;;;;4994287;28;20175;-49
2023/07/01 05:01:38;;;;;;;3.47;2.70;;;22.20;51.30;22.70;99875.00;;;;5011494;28;20647;-49
2023/07/01 05:04:04;;;;;;;3.03;2.63;;;22.20;51.50;22.70;99872.00;;;;5011057;28;20179;-49
2023/07/01 05:06:31;;;;;;;4.60;2.53;;;22.20;51.60;22.50;99868.00;;;;5011163;28;20226;-49
2023/07/01 05:08:57;;;;;;;3.77;2.60;;;22.20;51.50;22.70;99862.00;;;;5011596;28;20182;-48
2023/07/01 05:11:23;;;;;;;2.70;2.50;;;22.20;51.60;22.70;99857.00;;;;5011334;28;20298;-48
2023/07/01 05:13:49;;;;;;;2.60;2.40;;;22.20;51.70;22.70;99851.00;;;;4993888;28;20178;-49
2023/07/01 05:16:15;;;;;;;3.30;2.40;;;22.20;51.60;22.70;99853.00;;;;5011436;28;20187;-49
2023/07/01 05:18:40;;;;;;;2.60;2.40;;;22.20;51.60;22.70;99842.00;;;;5011160;28;20587;-49
2023/07/01 05:21:06;;;;;;;3.17;2.60;;;22.20;51.70;22.70;99841.00;;;;5011400;28;20171;-48
2023/07/01 05:23:32;;;;;;;2.70;2.50;;;22.20;51.70;22.70;99838.00;;;;5010894;28;20182;-50
2023/07/01 05:25:58;;;;;;;3.40;2.70;;;22.20;51.70;22.70;99843.00;;;;5011081;28;20200;-50
2023/07/01 05:28:24;;;;;;;3.03;2.73;;;22.20;51.70;22.70;99838.00;;;;5010912;28;20274;-49
2023/07/01 05:30:50;;;;;;;2.70;2.50;;;22.20;51.70;22.70;99821.00;;;;5011375;28;20179;-49
2023/07/01 05:33:16;;;;;;;3.13;2.50;;;22.20;51.60;22.70;99832.00;;;;4993702;28;20207;-49
2023/07/01 05:35:41;;;;;;;2.87;2.40;;;22.20;51.70;22.70;99838.00;;;;5010108;28;20223;-48
2023/07/01 05:38:11;;;;;;;3.53;2.60;;;22.20;51.60;22.70;99828.00;;;;5010070;28;20202;-49
2023/07/01 05:40:38;;;;;;;3.07;2.43;;;22.20;51.70;22.70;99820.00;;;;5010795;28;20179;-49
2023/07/01 05:43:04;;;;;;;3.33;2.40;;;22.20;51.70;22.70;99822.00;;;;5011251;28;20228;-51
2023/07/01 05:45:29;;;;;;;2.70;2.50;;;22.20;51.70;22.70;99822.00;;;;4993077;28;20195;-50
2023/07/01 05:47:55;;;;;;;2.67;2.47;;;22.20;51.70;22.70;99825.00;;;;5010480;28;20810;-51
2023/07/01 05:50:21;;;;;;;3.97;2.67;;;22.20;51.80;22.70;99813.00;;;;5021296;28;20199;-51
2023/07/01 05:52:47;;;;;;;2.60;2.40;;;22.20;52.00;22.70;99825.00;;;;5019254;28;20203;-51
2023/07/01 05:55:13;;;;;;;3.23;2.67;;;22.20;52.00;22.70;99745.00;;;;5011071;28;20196;-48
2023/07/01 05:57:39;;;;;;;2.93;2.53;;;22.20;52.00;22.70;99823.00;;;;5013095;28;20171;-49
2023/07/01 06:00:06;;;;;;;2.67;2.47;;;22.10;51.90;22.60;99812.00;;;;5012649;28;20184;-49
2023/07/01 06:02:32;;;;;;;2.60;2.40;;;22.10;51.90;22.70;99819.00;;;;5010597;28;20194;-49
2023/07/01 06:04:58;;;;;;;3.17;2.40;;;22.20;52.00;22.60;99800.00;;;;5012665;28;20187;-49
2023/07/01 06:07:24;;;;;;;3.00;2.50;;;22.20;52.00;22.70;99819.00;;;;5021061;28;20184;-49
2023/07/01 06:09:49;;;;;;;2.93;2.40;;;22.10;51.90;22.60;99818.00;;;;5005598;28;20220;-49
2023/07/01 06:12:15;;;;;;;2.90;2.60;;;22.10;51.90;22.60;99820.00;;;;5002830;28;20196;-48
2023/07/01 06:14:42;;;;;;;2.60;2.40;;;22.10;51.90;22.60;99822.00;;;;5001838;28;20179;-49
2023/07/01 06:17:07;;;;;;;2.83;2.40;;;22.10;52.10;22.60;99826.00;;;;5002093;28;20335;-47
2023/07/01 06:19:33;;;;;;;2.60;2.40;;;22.10;52.20;22.60;99817.00;;;;5010736;28;20620;-48
2023/07/01 06:21:59;;;;;;;3.03;2.40;;;22.10;52.30;22.60;99833.00;;;;5010709;28;20846;-49
2023/07/01 06:24:25;;;;;;;4.50;2.50;;;22.10;52.50;22.60;99825.00;;;;5009537;28;20172;-49
2023/07/01 06:26:50;;;;;;;3.50;2.60;;;22.10;52.60;22.60;99825.00;;;;5001159;28;20203;-47
2023/07/01 06:29:16;;;;;;;2.93;2.60;;;22.10;52.60;22.60;99833.00;;;;5009831;28;20188;-48
2023/07/01 06:31:42;;;;;;;2.70;2.50;;;22.10;52.80;22.60;99744.00;;;;5010570;28;20218;-54
2023/07/01 06:34:17;;;;;;;2.70;2.50;;;22.10;52.70;22.60;99826.00;;;;5005067;28;20276;-48
2023/07/01 06:36:43;;;;;;;2.93;2.40;;;22.10;53.00;22.60;99825.00;;;;5006134;28;20199;-48
2023/07/01 06:39:09;;;;;;;2.70;2.50;;;22.10;53.20;22.60;99824.00;;;;5009187;28;20668;-49
2023/07/01 06:41:35;;;;;;;2.50;2.30;;;22.10;53.20;22.60;99826.00;;;;5010327;28;20262;-48
2023/07/01 06:44:00;;;;;;;3.13;2.60;;;22.10;53.40;22.60;99828.00;;;;4999671;28;20736;-48
2023/07/01 06:46:27;;;;;;;3.30;2.60;;;22.10;53.60;22.60;99823.00;;;;4986169;28;20210;-48
2023/07/01 06:48:52;;;;;;;4.33;2.70;;;22.10;53.60;22.60;99823.00;;;;5009583;28;20681;-48
2023/07/01 06:51:18;;;;;;;3.37;2.60;;;22.10;53.80;22.60;99836.00;;;;5010177;28;20175;-48
2023/07/01 06:53:44;;;;;;;3.23;2.80;;;22.10;53.80;22.60;99842.00;;;;5008632;28;20168;-47
2023/07/01 06:56:10;;;;;;;3.73;2.97;;;22.10;54.10;22.60;99837.00;;;;5015673;28;20187;-47
2023/07/01 06:58:36;;;;;;;3.37;2.80;;;22.10;54.20;22.60;99834.00;;;;5011984;28;20248;-47
2023/07/01 07:01:02;;;;;;;3.10;2.57;;;22.00;54.30;22.50;99835.00;;;;5000406;28;20702;-48
2023/07/01 07:03:28;;;;;;;2.93;2.63;;;22.00;54.70;22.50;99836.00;;;;5009301;28;20258;-48
2023/07/01 07:05:55;;;;;;;3.03;2.50;;;22.00;55.00;22.50;99831.00;;;;5008514;28;20684;-48
2023/07/01 07:08:21;;;;;;;3.37;2.90;;;22.00;55.30;22.50;99830.00;;;;5008577;28;20186;-49
2023/07/01 07:10:47;;;;;;;3.00;2.70;;;22.00;55.40;22.50;99827.00;;;;5009995;28;20184;-47
2023/07/01 07:13:13;;;;;;;3.30;2.87;;;22.00;55.60;22.50;99826.00;;;;5009269;28;20207;-46
2023/07/01 07:15:40;;;;;;;4.13;3.00;;;22.00;55.60;22.50;99825.00;;;;5009734;28;20714;-47
2023/07/01 07:18:08;;;;;;;3.10;2.70;;;22.00;55.80;22.50;99828.00;;;;5010013;28;20658;-47
2023/07/01 07:20:35;;;;;;;3.40;2.90;;;22.00;55.70;22.50;99831.00;;;;5010152;28;20212;-47
2023/07/01 07:23:01;;;;;;;3.40;2.60;;;22.00;56.00;22.50;99818.00;;;;5009947;28;20557;-47
2023/07/01 07:25:27;;;;;;;4.23;3.00;;;22.00;56.10;22.50;99823.00;;;;5009204;28;20572;-47
2023/07/01 07:27:53;;;;;;;4.33;3.10;;;22.00;56.20;22.50;99818.00;;;;5010008;28;20187;-47
2023/07/01 07:30:19;;;;;;;4.47;3.00;;;22.00;56.50;22.50;99820.00;;;;5008865;28;20182;-47
2023/07/01 07:32:44;;;;;;;3.67;2.90;;;22.00;56.30;22.50;99804.00;;;;5009902;28;20689;-47
2023/07/01 07:35:10;;;;;;;4.10;3.00;;;22.00;56.60;22.50;99808.00;;;;5009218;28;20193;-47
2023/07/01 07:37:36;;;;;;;3.17;2.87;;;22.00;56.80;22.50;99808.00;;;;5008822;28;20164;-46
2023/07/01 07:40:05;;;;;;;3.20;2.90;;;22.00;57.10;22.50;99810.00;;;;5008780;28;20254;-47
2023/07/01 07:42:31;;;;;;;3.33;2.93;;;22.00;57.70;22.50;99818.00;;;;5010000;28;20176;-48
2023/07/01 07:44:57;;;;;;;3.30;3.00;;;22.00;57.30;22.50;99812.00;;;;5008831;28;20178;-47
2023/07/01 07:47:23;;;;;;;3.47;2.90;;;22.00;57.30;22.50;99809.00;;;;5009622;28;20171;-47
2023/07/01 07:49:49;;;;;;;4.17;2.80;;;22.00;57.20;22.50;99823.00;;;;5009394;28;20234;-46
2023/07/01 07:52:15;;;;;;;3.27;2.90;;;22.00;57.30;22.50;99824.00;;;;5019570;28;20259;-47
2023/07/01 07:54:43;;;;;;;3.67;3.10;;;22.00;57.30;22.50;99818.00;;;;5024761;28;20650;-46
2023/07/01 07:57:09;;;;;;;4.53;3.00;;;22.00;57.30;22.50;99818.00;;;;5013355;28;20176;-46
2023/07/01 07:59:35;;;;;;;4.53;3.00;;;22.00;57.60;22.50;99823.00;;;;5013804;28;20186;-47
2023/07/01 08:02:01;;;;;;;5.17;2.70;;;22.00;57.60;22.50;99822.00;;;;5014185;28;20682;-46
2023/07/01 08:04:27;;;;;;;3.53;2.93;;;22.00;57.60;22.50;99811.00;;;;5013662;28;20198;-46
2023/07/01 08:06:53;;;;;;;4.03;3.10;;;22.00;57.70;22.50;99813.00;;;;5022057;28;20191;-47
2023/07/01 08:09:19;;;;;;;4.20;2.83;;;22.00;57.90;22.50;99799.00;;;;5027791;28;20218;-46
2023/07/01 08:11:45;;;;;;;2.97;2.70;;;22.00;58.00;22.50;99809.00;;;;5014526;28;20230;-46
2023/07/01 08:14:11;;;;;;;4.13;2.83;;;22.00;58.00;22.50;99808.00;;;;5013104;28;20793;-46
2023/07/01 08:16:37;;;;;;;3.20;2.80;;;22.00;58.00;22.50;99809.00;;;;5012546;28;20188;-48
2023/07/01 08:19:03;;;;;;;3.23;2.80;;;22.00;58.10;22.50;99811.00;;;;5013113;28;20254;-47
2023/07/01 08:21:29;;;;;;;3.20;2.90;;;21.90;58.30;22.50;99802.00;;;;5011035;28;20267;-47
2023/07/01 08:23:55;;;;;;;3.57;2.80;;;21.90;58.20;22.50;99805.00;;;;5002063;28;20176;-46
2023/07/01 08:26:20;;;;;;;3.30;2.83;;;21.90;59.10;22.50;99809.00;;;;5008753;28;20230;-46
2023/07/01 08:28:46;;;;;;;4.07;2.93;;;22.00;59.20;22.50;99807.00;;;;5001236;28;20714;-47
2023/07/01 08:31:12;;;;;;;4.13;2.60;;;22.00;59.30;22.50;99804.00;;;;5004705;28;20831;-47
2023/07/01 08:33:38;;;;;;;2.80;2.60;;;21.90;59.30;22.50;99801.00;;;;5012050;28;20180;-48
2023/07/01 08:36:04;;;;;;;3.50;2.70;;;22.00;59.50;22.50;99802.00;;;;4992082;28;20366;-47
2023/07/01 08:38:30;;;;;;;3.87;3.00;;;22.00;60.10;22.50;99796.00;;;;4995701;28;20249;-48
2023/07/01 08:40:57;;;;;;;5.10;2.80;;;22.00;60.00;22.60;99800.00;;;;5010846;28;20323;-47
2023/07/01 08:43:25;;;;;;;3.67;2.90;;;22.00;60.40;22.60;99794.00;;;;5007150;28;20255;-47
2023/07/01 08:45:51;;;;;;;3.10;2.70;;;22.00;60.30;22.60;99800.00;;;;4995878;28;20199;-47
2023/07/01 08:48:17;;;;;;;3.37;2.60;;;22.00;60.50;22.60;99786.00;;;;5010480;28;20180;-48
2023/07/01 08:50:52;;;;;;;2.63;2.43;;;22.00;60.90;22.60;99788.00;;;;4996767;28;20583;-48
2023/07/01 08:53:18;;;;;;;4.70;2.87;;;22.00;61.10;22.60;99791.00;;;;4989960;28;20297;-48
2023/07/01 08:55:45;;;;;;;3.50;2.57;;;22.00;60.90;22.60;99795.00;;;;4990812;28;20200;-47
2023/07/01 08:58:12;;;;;;;2.80;2.40;;;22.00;61.00;22.60;99791.00;;;;4991396;28;20168;-48
2023/07/01 09:00:39;;;;;;;3.23;2.50;;;22.00;60.90;22.60;99785.00;;;;4984879;28;20586;-49
2023/07/01 09:03:05;;;;;;;4.07;2.53;;;22.00;60.40;22.70;99785.00;;;;4991029;28;20609;-48
2023/07/01 09:05:31;;;;;;;2.60;2.37;;;22.00;60.70;22.70;99777.00;;;;4973642;28;20204;-47
2023/07/01 09:07:56;;;;;;;2.80;2.50;;;22.00;60.70;22.70;99784.00;;;;4990919;28;20176;-48
2023/07/01 09:10:22;;;;;;;2.90;2.60;;;22.00;60.70;22.70;99775.00;;;;4992380;28;20191;-48
2023/07/01 09:12:48;;;;;;;5.83;2.63;;;22.10;61.30;22.70;99779.00;;;;4994016;28;20232;-48
2023/07/01 09:15:15;;;;;;;3.23;2.50;;;22.00;61.50;22.70;99784.00;;;;4992555;28;20200;-48
2023/07/01 09:17:42;;;;;;;4.37;2.60;;;22.00;61.40;22.70;99779.00;;;;4993806;28;20650;-48
2023/07/01 09:20:10;;;;;;;2.90;2.60;;;22.00;61.30;22.70;99781.00;;;;4993809;28;20187;-48
2023/07/01 09:22:39;;;;;;;3.10;2.20;;;22.00;61.70;22.60;99773.00;;;;4992142;28;20812;-47
2023/07/01 09:25:05;;;;;;;2.30;2.10;;;22.00;62.30;22.70;99768.00;;;;4991556;28;20199;-47
2023/07/01 09:27:41;;;;;;;2.73;2.30;;;22.00;62.40;22.70;99776.00;;;;4991570;28;20184;-47
2023/07/01 09:30:26;;;;;;;2.73;2.40;;;22.00;62.30;22.70;99778.00;;;;4991320;28;20809;-47
2023/07/01 09:33:12;;;;;;;2.70;2.40;;;22.00;62.80;22.60;99773.00;;;;4991219;28;20195;-48
2023/07/01 09:35:44;;;;;;;2.83;2.40;;;22.00;62.00;22.60;99775.00;;;;4990646;28;20184;-48
2023/07/01 09:38:10;;;;;;;3.10;2.40;;;22.00;62.90;22.60;99765.00;;;;4991583;28;20168;-47
2023/07/01 09:40:36;;;;;;;4.00;2.40;;;22.00;62.80;22.60;99770.00;;;;4991648;28;20176;-47
2023/07/01 09:43:01;;;;;;;2.60;2.40;;;22.00;62.40;22.60;99777.00;;;;4991213;28;20235;-48
2023/07/01 09:45:27;;;;;;;2.90;2.57;;;22.00;63.20;22.60;99773.00;;;;4991331;28;20262;-46
2023/07/01 09:47:53;;;;;;;3.30;2.50;;;22.00;63.50;22.60;99772.00;;;;4991548;28;20651;-47
2023/07/01 09:50:23;;;;;;;3.40;2.60;;;22.00;63.50;22.60;99777.00;;;;4990115;28;20180;-46
2023/07/01 09:52:50;;;;;;;2.90;2.40;;;22.10;63.90;22.60;99773.00;;;;4994233;28;20288;-49
2023/07/01 09:55:16;;;;;;;2.60;2.40;;;22.00;63.90;22.60;99772.00;;;;5008460;28;20197;-47
2023/07/01 09:57:41;;;;;;;2.50;2.30;;;22.10;64.50;22.60;99773.00;;;;4995145;28;20235;-47
2023/07/01 10:00:10;;;;;;;2.33;2.10;;;22.00;64.70;22.60;99768.00;;;;4991542;28;20231;-46
2023/07/01 10:02:35;;;;;;;4.83;2.10;;;22.00;64.60;22.60;99762.00;;;;4991850;28;20203;-48
2023/07/01 10:05:01;;;;;;;5.03;2.20;;;22.00;64.70;22.60;99761.00;;;;4991024;28;20231;-46
2023/07/01 10:07:27;;;;;;;3.13;2.03;;;22.10;65.10;22.60;99763.00;;;;4992734;28;20180;-46
2023/07/01 10:09:53;;;;;;;2.73;2.10;;;22.00;64.90;22.60;99764.00;;;;4988045;28;20184;-48
2023/07/01 10:12:19;;;;;;;2.90;2.57;;;22.00;65.60;22.60;99760.00;;;;4991384;28;20235;-47
2023/07/01 10:14:51;;;;;;;3.43;2.13;;;22.00;65.60;22.60;99751.00;;;;4988731;28;20747;-48
2023/07/01 10:17:17;;;;;;;2.00;1.80;;;22.00;65.60;22.60;99751.00;;;;4990398;28;20180;-47
2023/07/01 10:19:46;;;;;;;2.20;2.00;;;21.90;65.90;22.60;99749.00;;;;4990685;28;20275;-47
2023/07/01 10:22:29;;;;;;;3.17;2.00;;;22.00;66.40;22.60;99753.00;;;;4990484;28;20658;-47
2023/07/01 10:25:06;;;;;;;3.20;2.00;;;22.00;66.40;22.60;99743.00;;;;4990210;28;20180;-47
2023/07/01 10:27:43;;;;;;;2.00;1.80;;;21.90;66.60;22.50;99747.00;;;;4990783;28;20592;-47
2023/07/01 10:30:11;;;;;;;2.13;1.93;;;22.00;66.50;22.50;99743.00;;;;4990821;28;20187;-47
2023/07/01 10:32:36;;;;;;;2.20;2.00;;;21.90;66.90;22.50;99738.00;;;;4989089;28;20200;-47
2023/07/01 10:35:05;;;;;;;2.23;2.00;;;22.00;66.90;22.50;99747.00;;;;4988490;28;20195;-47
2023/07/01 10:37:32;;;;;;;2.83;1.83;;;21.90;67.10;22.50;99743.00;;;;4990154;28;20173;-47
2023/07/01 10:40:07;;;;;;;2.07;1.90;;;22.00;67.20;22.50;99735.00;;;;4990367;28;20172;-47
2023/07/01 10:42:36;;;;;;;2.37;2.17;;;22.00;67.30;22.50;99730.00;;;;4990314;28;20246;-47
2023/07/01 10:45:11;;;;;;;2.53;2.00;;;21.90;67.40;22.50;99734.00;;;;4993272;28;20267;-48
2023/07/01 10:47:37;;;;;;;2.53;1.90;;;22.00;67.70;22.50;99738.00;;;;4991997;28;20305;-47
2023/07/01 10:50:08;;;;;;;2.20;2.00;;;21.90;68.10;22.50;99750.00;;;;4988572;28;20228;-47
2023/07/01 10:52:59;;;;;;;2.63;2.20;;;21.90;68.50;22.50;99739.00;;;;4989961;28;20219;-49